Time;durP1;ratioP1;P1;durP2;ratioP2;P2;SDS_P1;SDS_P2;PMS_P1;PMS_P2;Temp;Humidity;BMP_temperature;BMP_pressure;BME280_temperature;BME280_humidity;BME280_pressure;Samples;Min_cycle;Max_cycle;Signal;HPM_P1;HPM_P2
2023/06/11 00:01:19;;;;;;;11.60;8.45;;;22.50;77.00;;;;;;5082685;28;20515;-71
2023/06/11 00:03:52;;;;;;;11.85;8.25;;;22.50;77.20;;;;;;5097525;27;20048;-74
2023/06/11 00:06:21;;;;;;;10.98;8.30;;;22.50;77.10;;;;;;5081007;27;20115;-71
2023/06/11 00:08:53;;;;;;;10.25;8.07;;;22.40;77.00;;;;;;5060794;28;20044;-71
2023/06/11 00:11:22;;;;;;;11.05;8.45;;;22.40;77.10;;;;;;5075448;28;20047;-70
2023/06/11 00:13:49;;;;;;;9.77;7.90;;;22.40;77.20;;;;;;5068969;28;20048;-71
2023/06/11 00:16:15;;;;;;;;;;;22.40;77.20;;;;;;5089189;28;20207;-70
2023/06/11 00:18:42;;;;;;;9.83;7.97;;;22.40;77.60;;;;;;5087464;28;19923;-71
2023/06/11 00:21:12;;;;;;;9.32;8.25;;;22.40;77.30;;;;;;5063702;28;20048;-70
2023/06/11 00:23:38;;;;;;;10.13;8.30;;;22.40;77.30;;;;;;5066362;28;20136;-72
2023/06/11 00:26:05;;;;;;;8.70;7.80;;;22.40;77.30;;;;;;5077796;28;20051;-71
2023/06/11 00:28:31;;;;;;;;;;;22.30;77.30;;;;;;5083785;28;20054;-71
2023/06/11 00:30:57;;;;;;;12.27;8.20;;;22.30;78.40;;;;;;5109440;27;19923;-71
2023/06/11 00:33:23;;;;;;;9.77;8.00;;;22.20;77.50;;;;;;5092877;28;20130;-71
2023/06/11 00:35:48;;;;;;;10.32;7.82;;;22.20;77.60;;;;;;5066765;28;20177;-70
2023/06/11 00:38:15;;;;;;;9.32;7.75;;;22.20;77.70;;;;;;5069799;28;20131;-72
2023/06/11 00:40:41;;;;;;;8.85;7.95;;;22.10;77.80;;;;;;5073764;28;20082;-71
2023/06/11 00:43:07;;;;;;;11.70;8.18;;;22.20;77.90;;;;;;5088777;28;20134;-71
2023/06/11 00:45:35;;;;;;;8.65;7.75;;;22.10;77.80;;;;;;5068643;28;20051;-71
2023/06/11 00:48:01;;;;;;;9.68;7.60;;;22.10;78.00;;;;;;5093524;28;20050;-70
2023/06/11 00:50:28;;;;;;;8.95;7.65;;;22.10;78.00;;;;;;5065330;28;20051;-70
2023/06/11 00:52:54;;;;;;;11.05;8.00;;;22.00;78.10;;;;;;5095259;28;20058;-71
2023/06/11 00:55:21;;;;;;;8.30;7.35;;;22.00;78.30;;;;;;5079218;28;20048;-70
2023/06/11 00:57:48;;;;;;;9.30;7.65;;;22.00;78.30;;;;;;5061656;28;20059;-71
2023/06/11 01:00:14;;;;;;;9.50;7.93;;;22.00;78.40;;;;;;5063800;28;20135;-70
2023/06/11 01:02:57;;;;;;;8.55;7.60;;;22.00;78.40;;;;;;5084687;27;20509;-71
2023/06/11 01:05:25;;;;;;;10.68;8.13;;;21.90;78.60;;;;;;5072889;28;20052;-71
2023/06/11 01:07:55;;;;;;;8.80;7.65;;;21.90;78.70;;;;;;5081429;28;20062;-72
2023/06/11 01:10:21;;;;;;;10.15;7.70;;;21.90;79.00;;;;;;5082218;28;20091;-71
2023/06/11 01:12:48;;;;;;;9.45;7.68;;;21.80;79.10;;;;;;5075845;28;20435;-70
2023/06/11 01:15:14;;;;;;;9.80;8.10;;;21.80;79.20;;;;;;5065603;28;20047;-70
2023/06/11 01:18:05;;;;;;;9.25;7.93;;;21.70;79.50;;;;;;5079222;28;20039;-72
2023/06/11 01:20:49;;;;;;;9.90;8.02;;;21.70;79.80;;;;;;5074436;28;20057;-72
2023/06/11 01:23:31;;;;;;;11.38;8.00;;;21.60;80.10;;;;;;5064784;28;20048;-71
2023/06/11 01:25:56;;;;;;;9.20;8.10;;;21.60;80.10;;;;;;5098210;28;20059;-72
2023/06/11 01:28:28;;;;;;;9.55;7.90;;;21.50;80.10;;;;;;5095900;28;20047;-71
2023/06/11 01:30:57;;;;;;;8.60;7.70;;;21.50;80.40;;;;;;5070973;28;20090;-71
2023/06/11 01:33:24;;;;;;;9.50;8.02;;;21.50;80.70;;;;;;5073309;28;20060;-70
2023/06/11 01:35:52;;;;;;;10.07;7.55;;;21.40;80.80;;;;;;5092528;28;21394;-71
2023/06/11 01:38:21;;;;;;;9.30;8.10;;;21.40;80.90;;;;;;5095525;27;20456;-70
2023/06/11 01:40:47;;;;;;;9.60;8.45;;;21.40;81.10;;;;;;5094966;28;20043;-71
2023/06/11 01:43:13;;;;;;;11.43;8.63;;;21.40;81.20;;;;;;5071407;28;20058;-70
2023/06/11 01:45:39;;;;;;;11.63;8.18;;;21.30;81.40;;;;;;5090808;28;20699;-70
2023/06/11 01:48:05;;;;;;;13.15;8.32;;;21.30;81.60;;;;;;5112729;27;20483;-71
2023/06/11 01:50:32;;;;;;;9.10;8.00;;;21.20;81.90;;;;;;5073079;28;20627;-71
2023/06/11 01:52:58;;;;;;;10.43;7.72;;;21.20;82.10;;;;;;5074542;28;20044;-70
2023/06/11 01:55:23;;;;;;;11.30;8.57;;;21.20;82.30;;;;;;5068217;28;20048;-74
2023/06/11 01:57:49;;;;;;;11.52;8.15;;;21.10;82.40;;;;;;5070936;28;20127;-70
2023/06/11 02:00:15;;;;;;;9.77;8.70;;;21.10;82.60;;;;;;5078452;28;20039;-70
2023/06/11 02:02:44;;;;;;;10.32;9.30;;;21.00;82.80;;;;;;5073815;28;20051;-71
2023/06/11 02:05:10;;;;;;;9.73;8.65;;;21.00;83.00;;;;;;5065142;28;20414;-70
2023/06/11 02:07:36;;;;;;;8.98;7.85;;;21.00;83.10;;;;;;5075300;28;20052;-71
2023/06/11 02:10:02;;;;;;;9.23;8.32;;;20.90;83.30;;;;;;5077434;28;20048;-71
2023/06/11 02:12:28;;;;;;;10.07;8.60;;;20.90;83.70;;;;;;5077662;28;20048;-71
2023/06/11 02:14:53;;;;;;;10.07;8.88;;;20.80;83.90;;;;;;5073667;28;20032;-71
2023/06/11 02:17:19;;;;;;;9.20;8.30;;;20.80;84.10;;;;;;5068618;28;20112;-71
2023/06/11 02:19:45;;;;;;;9.52;8.60;;;20.80;84.40;;;;;;5070461;28;20142;-70
2023/06/11 02:22:10;;;;;;;9.05;8.15;;;20.70;84.70;;;;;;5066111;28;20048;-68
2023/06/11 02:24:36;;;;;;;10.10;8.98;;;20.70;85.60;;;;;;5067885;28;20536;-69
2023/06/11 02:27:02;;;;;;;9.90;8.95;;;20.70;85.10;;;;;;5073690;28;20131;-69
2023/06/11 02:29:27;;;;;;;9.70;8.70;;;20.70;85.10;;;;;;5059606;28;20048;-68
2023/06/11 02:31:53;;;;;;;10.18;8.95;;;20.60;85.40;;;;;;5072227;28;20091;-71
2023/06/11 02:34:18;;;;;;;10.45;9.38;;;20.60;85.60;;;;;;5073836;28;20071;-71
2023/06/11 02:36:44;;;;;;;10.32;9.27;;;20.60;85.70;;;;;;5073824;28;20048;-71
2023/06/11 02:39:10;;;;;;;10.82;9.82;;;20.60;86.00;;;;;;5064556;28;20149;-72
2023/06/11 02:41:35;;;;;;;10.32;9.43;;;20.50;86.30;;;;;;5068188;28;20050;-71
2023/06/11 02:44:01;;;;;;;11.13;10.13;;;20.50;86.50;;;;;;5072855;28;20032;-69
2023/06/11 02:46:27;;;;;;;11.10;9.98;;;20.40;86.80;;;;;;5068719;28;20054;-68
2023/06/11 02:48:52;;;;;;;10.60;9.60;;;20.40;86.90;;;;;;5076287;28;20422;-69
2023/06/11 02:51:18;;;;;;;10.23;9.27;;;20.40;87.20;;;;;;5090291;28;20071;-69
2023/06/11 02:53:44;;;;;;;11.02;9.93;;;20.40;87.30;;;;;;5102499;27;20486;-70
2023/06/11 02:56:10;;;;;;;11.65;10.52;;;20.30;87.60;;;;;;5089901;28;20390;-69
2023/06/11 02:58:35;;;;;;;11.10;10.00;;;20.30;87.90;;;;;;5069597;28;20047;-68
2023/06/11 03:01:01;;;;;;;11.02;9.90;;;20.30;88.20;;;;;;5075559;28;20453;-68
2023/06/11 03:03:26;;;;;;;11.85;10.02;;;20.30;88.50;;;;;;5089623;27;20051;-70
2023/06/11 03:05:52;;;;;;;11.18;10.18;;;20.20;88.60;;;;;;5089575;28;20071;-69
2023/06/11 03:08:18;;;;;;;11.65;10.02;;;20.20;89.00;;;;;;5094649;28;20044;-69
2023/06/11 03:10:43;;;;;;;11.57;10.25;;;20.20;89.20;;;;;;5099029;27;20043;-69
2023/06/11 03:13:09;;;;;;;12.88;10.80;;;20.10;89.70;;;;;;5112156;27;20040;-68
2023/06/11 03:15:35;;;;;;;11.20;10.02;;;20.10;90.00;;;;;;5070436;28;20071;-68
2023/06/11 03:18:01;;;;;;;11.85;10.45;;;20.10;90.10;;;;;;5098912;28;20571;-69
2023/06/11 03:20:27;;;;;;;11.45;10.38;;;20.00;90.20;;;;;;5068792;28;20419;-69
2023/06/11 03:22:53;;;;;;;10.88;9.85;;;20.00;90.60;;;;;;5073306;28;20036;-69
2023/06/11 03:25:18;;;;;;;11.55;10.35;;;20.00;90.50;;;;;;5091402;27;20047;-70
2023/06/11 03:27:44;;;;;;;11.80;10.70;;;20.00;90.70;;;;;;5075594;28;20036;-68
2023/06/11 03:30:11;;;;;;;11.73;10.65;;;20.00;90.80;;;;;;5111498;27;20447;-69
2023/06/11 03:32:38;;;;;;;14.40;11.18;;;19.90;90.90;;;;;;5075399;28;20031;-68
2023/06/11 03:35:04;;;;;;;12.38;11.02;;;19.90;91.00;;;;;;5068906;28;20048;-69
2023/06/11 03:37:30;;;;;;;12.32;11.13;;;20.00;91.10;;;;;;5086227;27;20039;-69
2023/06/11 03:39:55;;;;;;;11.90;10.70;;;19.90;91.20;;;;;;5098782;28;20491;-68
2023/06/11 03:42:21;;;;;;;11.98;10.88;;;19.90;91.30;;;;;;5098029;28;20048;-69
2023/06/11 03:44:47;;;;;;;13.10;11.40;;;19.90;91.50;;;;;;5084507;28;20082;-69
2023/06/11 03:47:13;;;;;;;12.63;11.32;;;19.90;91.60;;;;;;5108231;27;20479;-69
2023/06/11 03:49:39;;;;;;;13.25;11.98;;;19.80;91.60;;;;;;5069466;28;20047;-69
2023/06/11 03:52:05;;;;;;;12.45;11.25;;;19.90;91.80;;;;;;5105529;27;20193;-70
2023/06/11 03:54:31;;;;;;;13.25;11.45;;;19.90;91.80;;;;;;5065733;28;20044;-68
2023/06/11 03:56:57;;;;;;;15.50;12.05;;;19.90;92.00;;;;;;5081466;28;20036;-69
2023/06/11 03:59:23;;;;;;;12.00;11.00;;;19.80;92.10;;;;;;5094777;28;20047;-69
2023/06/11 04:01:49;;;;;;;12.70;11.50;;;19.90;92.20;;;;;;5075942;28;20053;-69
2023/06/11 04:04:14;;;;;;;12.82;11.52;;;19.80;92.70;;;;;;5081827;28;20067;-71
2023/06/11 04:06:40;;;;;;;13.73;11.43;;;19.80;92.60;;;;;;5087711;28;20040;-71
2023/06/11 04:09:09;;;;;;;13.32;11.30;;;19.80;92.70;;;;;;5086508;28;20055;-68
2023/06/11 04:11:34;;;;;;;12.25;11.05;;;19.90;92.70;;;;;;5094604;28;20044;-69
2023/06/11 04:14:00;;;;;;;12.80;11.50;;;19.90;92.80;;;;;;5071723;28;20036;-69
2023/06/11 04:16:26;;;;;;;13.27;11.85;;;19.90;93.00;;;;;;5059773;28;20101;-69
2023/06/11 04:18:52;;;;;;;13.15;11.90;;;20.00;93.00;;;;;;5064527;28;20044;-70
2023/06/11 04:21:18;;;;;;;13.48;12.18;;;20.00;93.20;;;;;;5087226;28;20040;-69
2023/06/11 04:23:44;;;;;;;13.07;11.82;;;20.00;93.30;;;;;;5104247;27;20201;-71
2023/06/11 04:26:10;;;;;;;13.25;11.52;;;20.00;93.40;;;;;;5082393;28;21917;-70
2023/06/11 04:28:37;;;;;;;13.13;11.75;;;20.00;93.80;;;;;;5066459;28;20507;-69
2023/06/11 04:31:04;;;;;;;13.27;11.93;;;20.10;93.60;;;;;;5073171;28;20046;-69
2023/06/11 04:33:32;;;;;;;13.73;12.30;;;20.10;93.60;;;;;;5073249;28;20047;-69
2023/06/11 04:36:01;;;;;;;12.95;11.75;;;20.10;94.00;;;;;;5081345;28;20056;-71
2023/06/11 04:38:30;;;;;;;12.93;11.65;;;20.10;93.90;;;;;;5074981;28;20122;-71
2023/06/11 04:40:57;;;;;;;13.18;11.75;;;20.10;93.90;;;;;;5086931;28;20068;-69
2023/06/11 04:43:23;;;;;;;13.57;12.38;;;20.20;94.00;;;;;;5088187;28;20047;-68
2023/06/11 04:45:59;;;;;;;14.05;12.63;;;20.20;94.00;;;;;;5086647;28;20039;-69
2023/06/11 04:48:28;;;;;;;13.95;12.48;;;20.30;94.10;;;;;;5075999;28;20051;-69
2023/06/11 04:50:54;;;;;;;14.50;13.05;;;20.40;94.10;;;;;;5052044;28;20188;-69
2023/06/11 04:53:27;;;;;;;14.27;12.80;;;20.40;94.20;;;;;;5072716;28;20047;-70
2023/06/11 04:55:55;;;;;;;13.57;12.27;;;20.50;94.30;;;;;;5082890;28;20044;-71
2023/06/11 04:58:23;;;;;;;13.85;12.55;;;20.50;94.20;;;;;;5074782;28;20051;-69
2023/06/11 05:00:49;;;;;;;13.50;12.30;;;20.60;94.30;;;;;;5069445;28;20517;-69
2023/06/11 05:03:19;;;;;;;13.50;12.30;;;20.60;94.30;;;;;;5058184;28;20052;-69
2023/06/11 05:05:52;;;;;;;15.98;12.80;;;20.70;94.40;;;;;;5092900;28;20040;-69
2023/06/11 05:08:24;;;;;;;13.52;12.20;;;20.70;94.20;;;;;;5087062;28;20414;-69
2023/06/11 05:10:51;;;;;;;13.60;12.27;;;20.80;94.20;;;;;;5092335;28;20048;-71
2023/06/11 05:13:22;;;;;;;14.50;13.07;;;20.80;94.30;;;;;;5060141;28;20053;-69
2023/06/11 05:15:48;;;;;;;14.18;12.00;;;20.80;94.40;;;;;;5077311;28;20134;-69
2023/06/11 05:18:14;;;;;;;13.82;11.88;;;20.90;94.40;;;;;;5089277;28;20039;-69
2023/06/11 05:20:40;;;;;;;13.60;12.27;;;21.00;94.20;;;;;;5063840;28;20059;-69
2023/06/11 05:23:06;;;;;;;13.45;12.05;;;21.00;94.20;;;;;;5079068;28;20047;-69
2023/06/11 05:25:32;;;;;;;12.75;11.63;;;21.00;94.20;;;;;;5065307;28;20047;-69
2023/06/11 05:28:02;;;;;;;13.90;12.55;;;21.10;94.20;;;;;;5067847;28;20051;-70
2023/06/11 05:30:33;;;;;;;15.10;12.40;;;21.10;94.20;;;;;;5096010;28;20135;-69
2023/06/11 05:32:58;;;;;;;12.80;11.50;;;21.20;94.00;;;;;;5106677;28;20044;-70
2023/06/11 05:35:25;;;;;;;12.68;11.48;;;21.20;94.00;;;;;;5061660;28;20144;-70
2023/06/11 05:37:51;;;;;;;16.23;11.80;;;21.30;94.00;;;;;;5065058;28;20055;-70
2023/06/11 05:40:17;;;;;;;11.93;10.65;;;21.40;93.80;;;;;;5083577;28;20842;-68
2023/06/11 05:42:42;;;;;;;12.65;11.45;;;21.40;93.60;;;;;;5061389;28;20051;-69
2023/06/11 05:45:08;;;;;;;12.90;11.68;;;21.40;93.60;;;;;;5079963;28;22205;-69
2023/06/11 05:47:34;;;;;;;12.13;10.90;;;21.50;93.40;;;;;;5081430;28;20812;-68
2023/06/11 05:50:00;;;;;;;14.55;10.95;;;21.60;93.30;;;;;;5065424;28;20086;-68
2023/06/11 05:52:26;;;;;;;12.00;10.90;;;21.60;93.50;;;;;;5065404;28;20134;-69
2023/06/11 05:54:52;;;;;;;12.13;10.48;;;21.70;93.20;;;;;;5092271;27;20044;-69
2023/06/11 05:57:22;;;;;;;12.98;11.77;;;21.70;93.20;;;;;;5084290;28;20070;-70
2023/06/11 05:59:48;;;;;;;12.00;10.82;;;21.80;93.20;;;;;;5110391;27;20048;-70
2023/06/11 06:02:14;;;;;;;11.75;10.55;;;21.80;92.90;;;;;;5065112;28;20051;-70
2023/06/11 06:04:41;;;;;;;13.32;10.77;;;21.90;93.10;;;;;;5082684;27;20078;-69
2023/06/11 06:07:06;;;;;;;12.25;11.05;;;22.00;93.10;;;;;;5083661;28;20051;-70
2023/06/11 06:09:35;;;;;;;11.82;10.73;;;22.00;93.00;;;;;;5089497;28;20070;-69
2023/06/11 06:12:01;;;;;;;12.15;10.70;;;22.10;92.80;;;;;;5105203;27;20036;-70
2023/06/11 06:14:26;;;;;;;13.63;10.48;;;22.20;92.80;;;;;;5089856;27;20039;-69
2023/06/11 06:16:52;;;;;;;11.80;10.60;;;22.30;92.80;;;;;;5080999;28;20075;-70
2023/06/11 06:19:18;;;;;;;10.70;9.70;;;22.30;92.70;;;;;;5065092;28;20075;-70
2023/06/11 06:21:43;;;;;;;11.55;10.35;;;22.40;92.40;;;;;;5098119;27;20028;-70
2023/06/11 06:24:11;;;;;;;11.57;10.48;;;22.50;92.20;;;;;;5068529;28;20406;-71
2023/06/11 06:26:40;;;;;;;11.55;10.30;;;22.50;92.10;;;;;;5091540;28;20048;-69
2023/06/11 06:29:07;;;;;;;11.48;10.27;;;22.60;92.00;;;;;;5068561;28;20051;-70
2023/06/11 06:31:33;;;;;;;;;;;22.60;91.90;;;;;;5078495;28;20047;-70
2023/06/11 06:33:59;;;;;;;12.40;10.73;;;22.70;91.80;;;;;;5067158;28;19962;-69
2023/06/11 06:36:25;;;;;;;11.18;10.07;;;22.80;91.80;;;;;;5060729;28;20067;-71
2023/06/11 06:38:51;;;;;;;11.65;10.20;;;22.80;91.60;;;;;;5087755;27;20043;-68
2023/06/11 06:41:16;;;;;;;12.20;11.10;;;22.90;91.80;;;;;;5067296;27;20050;-68
2023/06/11 06:43:42;;;;;;;11.20;10.13;;;23.00;91.50;;;;;;5093671;28;20128;-70
2023/06/11 06:46:08;;;;;;;11.80;10.60;;;23.10;91.60;;;;;;5103068;27;20058;-69
2023/06/11 06:48:34;;;;;;;10.52;9.43;;;23.10;91.50;;;;;;5088272;28;20036;-68
2023/06/11 06:51:00;;;;;;;11.25;10.05;;;23.20;91.50;;;;;;5069790;28;20048;-69
2023/06/11 06:53:26;;;;;;;11.68;10.32;;;23.20;91.60;;;;;;5075142;28;20152;-73
2023/06/11 06:55:52;;;;;;;10.97;9.77;;;23.30;91.60;;;;;;5113887;27;20490;-69
2023/06/11 06:58:18;;;;;;;10.68;9.68;;;23.40;91.40;;;;;;5104153;27;20052;-71
2023/06/11 07:00:45;;;;;;;11.02;9.77;;;23.40;91.30;;;;;;5088520;28;20494;-70
2023/06/11 07:03:14;;;;;;;11.88;10.27;;;23.50;91.40;;;;;;5093410;28;20498;-72
2023/06/11 07:05:44;;;;;;;10.73;9.63;;;23.60;91.20;;;;;;5109911;27;20147;-70
2023/06/11 07:08:12;;;;;;;12.98;10.40;;;23.70;91.60;;;;;;5065507;28;20801;-72
2023/06/11 07:10:53;;;;;;;10.48;9.38;;;23.80;91.10;;;;;;5085759;28;20040;-71
2023/06/11 07:13:20;;;;;;;10.18;9.15;;;23.80;90.90;;;;;;5094782;28;20047;-71
2023/06/11 07:15:46;;;;;;;10.85;9.82;;;23.90;90.70;;;;;;5095966;28;20055;-71
2023/06/11 07:18:12;;;;;;;10.70;9.63;;;24.00;90.80;;;;;;5090098;28;20122;-71
2023/06/11 07:20:37;;;;;;;10.98;9.98;;;24.10;90.80;;;;;;5085262;28;20054;-71
2023/06/11 07:23:03;;;;;;;11.80;9.40;;;24.20;90.50;;;;;;5095021;28;20048;-73
2023/06/11 07:25:29;;;;;;;11.38;10.15;;;24.20;90.40;;;;;;5091082;28;20057;-71
2023/06/11 07:27:55;;;;;;;10.82;9.73;;;24.30;90.30;;;;;;5110531;27;20059;-72
2023/06/11 07:30:21;;;;;;;11.27;10.13;;;24.40;90.10;;;;;;5091870;28;21120;-73
2023/06/11 07:32:47;;;;;;;11.85;9.95;;;24.40;90.20;;;;;;5095823;28;20038;-72
2023/06/11 07:35:13;;;;;;;10.90;9.77;;;24.50;90.10;;;;;;5089768;28;20043;-72
2023/06/11 07:37:38;;;;;;;11.52;10.32;;;24.60;90.00;;;;;;5075291;28;20304;-70
2023/06/11 07:40:05;;;;;;;11.32;9.60;;;24.60;89.90;;;;;;5070071;28;20053;-69
2023/06/11 07:42:31;;;;;;;10.40;9.40;;;24.60;89.30;;;;;;5071451;28;20047;-71
2023/06/11 07:44:57;;;;;;;11.00;9.27;;;24.70;89.10;;;;;;5070263;28;20120;-69
2023/06/11 07:47:22;;;;;;;10.20;9.20;;;24.80;88.60;;;;;;5076129;28;20134;-70
2023/06/11 07:49:48;;;;;;;10.20;9.30;;;24.90;88.90;;;;;;5075350;28;20084;-71
2023/06/11 07:52:14;;;;;;;12.30;9.50;;;25.00;88.60;;;;;;5076882;28;20047;-72
2023/06/11 07:54:40;;;;;;;11.65;9.77;;;25.10;88.20;;;;;;5084661;27;20055;-72
2023/06/11 07:57:08;;;;;;;11.90;9.30;;;25.20;87.90;;;;;;5093829;27;20104;-73
2023/06/11 07:59:36;;;;;;;;;;;25.20;88.10;;;;;;5096565;27;20079;-71
2023/06/11 08:02:03;;;;;;;10.98;9.63;;;25.30;88.30;;;;;;5069977;28;19930;-73
2023/06/11 08:04:29;;;;;;;10.10;9.10;;;25.40;88.30;;;;;;5075207;28;20050;-72
2023/06/11 08:06:54;;;;;;;10.43;9.40;;;25.50;87.90;;;;;;5083498;27;20040;-69
2023/06/11 08:09:20;;;;;;;9.95;9.02;;;25.50;87.50;;;;;;5090481;28;20050;-71
2023/06/11 08:11:46;;;;;;;9.95;8.57;;;25.60;87.70;;;;;;5084355;28;20043;-69
2023/06/11 08:14:11;;;;;;;13.70;9.55;;;25.60;86.70;;;;;;5075716;28;20039;-69
2023/06/11 08:16:37;;;;;;;12.00;9.13;;;25.70;86.70;;;;;;5097380;28;20046;-68
2023/06/11 08:19:03;;;;;;;10.23;9.07;;;25.80;86.40;;;;;;5080148;28;20474;-71
2023/06/11 08:21:29;;;;;;;10.18;9.18;;;25.80;86.00;;;;;;5082953;28;20048;-70
2023/06/11 08:23:55;;;;;;;9.67;8.77;;;25.90;85.60;;;;;;5090571;27;20066;-70
2023/06/11 08:26:21;;;;;;;10.00;9.00;;;26.00;85.80;;;;;;5079110;28;20043;-69
2023/06/11 08:28:47;;;;;;;11.68;9.10;;;26.10;85.00;;;;;;5091120;27;20044;-70
2023/06/11 08:31:14;;;;;;;12.23;9.40;;;26.10;84.70;;;;;;5071910;28;20035;-71
2023/06/11 08:33:40;;;;;;;10.27;9.25;;;26.20;84.20;;;;;;5075038;28;20043;-70
2023/06/11 08:36:06;;;;;;;9.63;8.25;;;26.30;83.80;;;;;;5093123;28;20143;-71
2023/06/11 08:38:32;;;;;;;9.47;8.13;;;26.30;84.30;;;;;;5075019;28;20459;-72
2023/06/11 08:40:57;;;;;;;8.93;8.13;;;26.40;84.40;;;;;;5095605;28;20047;-72
2023/06/11 08:43:24;;;;;;;11.40;9.38;;;26.50;83.90;;;;;;5111323;27;20104;-72
2023/06/11 08:45:49;;;;;;;10.48;8.50;;;26.60;83.60;;;;;;5107049;27;20043;-69
2023/06/11 08:48:20;;;;;;;9.23;8.33;;;26.60;83.10;;;;;;5091393;28;20039;-70
2023/06/11 08:50:48;;;;;;;10.65;9.05;;;26.70;82.40;;;;;;5089028;28;20052;-72
2023/06/11 08:53:13;;;;;;;11.13;9.00;;;26.70;82.10;;;;;;5091444;28;20136;-71
2023/06/11 08:55:41;;;;;;;9.38;8.40;;;26.80;82.40;;;;;;5068574;28;20052;-71
2023/06/11 08:58:09;;;;;;;10.75;8.35;;;26.80;81.80;;;;;;5089191;28;20108;-71
2023/06/11 09:00:38;;;;;;;9.50;8.57;;;26.90;81.50;;;;;;5088565;28;20082;-71
2023/06/11 09:03:04;;;;;;;12.88;8.23;;;27.00;81.50;;;;;;5071249;28;20055;-71
2023/06/11 09:05:33;;;;;;;12.02;8.60;;;27.10;81.60;;;;;;5090691;28;20046;-71
2023/06/11 09:07:58;;;;;;;11.75;8.30;;;27.20;81.30;;;;;;5084590;28;20048;-74
2023/06/11 09:10:24;;;;;;;8.35;7.55;;;27.20;80.50;;;;;;5072537;28;20104;-72
2023/06/11 09:12:50;;;;;;;8.77;7.70;;;27.30;81.30;;;;;;5073875;28;20054;-72
2023/06/11 09:15:20;;;;;;;9.23;8.33;;;27.40;80.30;;;;;;5073929;28;20047;-73
2023/06/11 09:17:48;;;;;;;8.85;7.22;;;27.40;79.30;;;;;;5094447;28;20040;-73
2023/06/11 09:20:15;;;;;;;10.35;8.45;;;27.50;79.50;;;;;;5065224;28;20048;-74
2023/06/11 09:22:43;;;;;;;9.98;7.78;;;27.60;79.70;;;;;;5071764;28;20052;-73
2023/06/11 09:25:16;;;;;;;11.18;7.70;;;27.60;79.10;;;;;;5095833;28;20055;-72
2023/06/11 09:27:42;;;;;;;9.90;7.97;;;27.70;79.30;;;;;;5078936;28;20079;-73
2023/06/11 09:30:17;;;;;;;8.15;7.40;;;27.80;78.10;;;;;;5080219;28;20850;-72
2023/06/11 09:32:46;;;;;;;8.32;7.40;;;27.90;77.30;;;;;;5087742;28;20039;-74
2023/06/11 09:35:13;;;;;;;9.43;8.15;;;27.90;77.60;;;;;;5074891;28;20047;-73
2023/06/11 09:37:49;;;;;;;9.57;7.90;;;28.00;77.10;;;;;;5068690;28;20185;-75
2023/06/11 09:40:16;;;;;;;;;;;28.00;75.50;;;;;;5078682;28;20846;-72
2023/06/11 09:42:48;;;;;;;8.25;7.30;;;28.00;76.80;;;;;;5093917;28;20319;-75
2023/06/11 09:45:20;;;;;;;8.63;7.60;;;28.20;75.80;;;;;;5095148;28;20130;-74
2023/06/11 09:47:47;;;;;;;8.98;7.72;;;28.30;75.40;;;;;;5085744;28;20466;-72
2023/06/11 09:50:15;;;;;;;8.20;7.38;;;28.30;75.60;;;;;;5098458;28;20116;-72
2023/06/11 09:52:42;;;;;;;8.88;7.45;;;28.30;75.70;;;;;;5073690;28;20051;-72
2023/06/11 09:55:09;;;;;;;7.82;7.13;;;28.40;74.30;;;;;;5087721;28;20079;-73
2023/06/11 09:57:40;;;;;;;7.90;7.15;;;28.50;72.80;;;;;;5088113;28;20044;-73
2023/06/11 10:00:09;;;;;;;9.35;7.30;;;28.50;73.20;;;;;;5078346;28;20071;-73
2023/06/11 10:02:37;;;;;;;7.80;7.00;;;28.60;73.30;;;;;;5092492;28;20114;-73
2023/06/11 10:05:05;;;;;;;8.75;7.28;;;28.70;72.40;;;;;;5095932;28;20182;-74
2023/06/11 10:07:35;;;;;;;8.45;7.65;;;28.80;73.50;;;;;;5075311;28;20058;-74
2023/06/11 10:10:01;;;;;;;10.43;7.72;;;28.80;73.90;;;;;;5088357;28;20044;-73
2023/06/11 10:12:32;;;;;;;9.52;7.47;;;28.90;73.60;;;;;;5076360;28;20128;-72
2023/06/11 10:14:58;;;;;;;7.95;7.25;;;29.00;73.20;;;;;;5073981;28;20773;-71
2023/06/11 10:17:24;;;;;;;9.77;7.07;;;29.10;72.50;;;;;;5094557;28;20050;-74
2023/06/11 10:19:51;;;;;;;8.17;7.43;;;29.20;72.00;;;;;;5089946;28;20036;-77
2023/06/11 10:22:35;;;;;;;8.23;7.32;;;29.30;71.70;;;;;;5071765;28;20062;-78
2023/06/11 10:25:02;;;;;;;8.00;7.10;;;29.30;70.30;;;;;;5069892;28;20921;-76
2023/06/11 10:27:40;;;;;;;8.00;7.20;;;29.40;70.70;;;;;;5092435;28;20048;-75
2023/06/11 10:30:07;;;;;;;8.25;7.35;;;29.50;68.30;;;;;;5074110;28;21683;-75
2023/06/11 10:32:33;;;;;;;7.15;6.47;;;29.50;69.10;;;;;;5088088;28;20043;-76
2023/06/11 10:35:03;;;;;;;10.40;7.23;;;29.50;68.80;;;;;;5073804;28;20063;-76
2023/06/11 10:37:28;;;;;;;9.60;7.43;;;29.60;69.80;;;;;;5077265;28;20043;-75
2023/06/11 10:39:54;;;;;;;10.37;6.87;;;29.70;68.30;;;;;;5075439;28;20581;-75
2023/06/11 10:42:28;;;;;;;8.70;7.00;;;29.70;67.90;;;;;;5072280;28;22175;-73
2023/06/11 10:45:00;;;;;;;9.57;6.32;;;29.80;66.70;;;;;;5091454;28;20050;-76
2023/06/11 10:47:28;;;;;;;9.23;7.15;;;29.80;66.90;;;;;;5105391;27;20683;-75
2023/06/11 10:50:16;;;;;;;8.95;6.90;;;29.90;65.90;;;;;;5092088;28;20051;-75
2023/06/11 10:52:54;;;;;;;7.20;6.50;;;29.90;65.30;;;;;;5075530;28;20062;-76
2023/06/11 10:55:21;;;;;;;11.43;6.50;;;29.90;64.60;;;;;;5076859;28;20058;-75
2023/06/11 10:57:57;;;;;;;8.15;7.18;;;30.00;64.40;;;;;;5093822;28;20126;-74
2023/06/11 11:00:23;;;;;;;8.27;6.90;;;30.10;64.20;;;;;;5095479;28;20051;-75
2023/06/11 11:02:50;;;;;;;8.98;6.28;;;30.20;64.00;;;;;;5072795;28;21234;-75
2023/06/11 11:05:16;;;;;;;7.28;6.50;;;30.20;62.70;;;;;;5095249;28;20048;-74
2023/06/11 11:07:44;;;;;;;9.73;6.88;;;30.30;62.00;;;;;;5090174;28;20035;-73
2023/06/11 11:10:11;;;;;;;7.50;6.68;;;30.40;62.10;;;;;;5074848;28;20104;-71
2023/06/11 11:12:42;;;;;;;7.60;6.82;;;30.40;62.00;;;;;;5085867;28;20078;-73
2023/06/11 11:15:10;;;;;;;9.13;6.43;;;30.40;62.40;;;;;;5096066;28;20051;-72
2023/06/11 11:17:37;;;;;;;8.85;6.70;;;30.40;62.50;;;;;;5093349;28;20052;-71
2023/06/11 11:20:07;;;;;;;8.45;6.75;;;30.50;62.40;;;;;;5064063;28;20059;-74
2023/06/11 11:22:34;;;;;;;8.93;6.45;;;30.50;61.10;;;;;;5087067;28;20051;-74
2023/06/11 11:25:04;;;;;;;8.52;6.53;;;30.50;60.40;;;;;;5069066;28;20232;-71
2023/06/11 11:27:31;;;;;;;9.23;6.70;;;30.60;60.10;;;;;;5094681;28;20240;-73
2023/06/11 11:29:59;;;;;;;13.32;6.72;;;30.60;58.70;;;;;;5092299;28;20071;-73
2023/06/11 11:32:31;;;;;;;7.90;6.88;;;30.60;59.00;;;;;;5094613;28;20085;-76
2023/06/11 11:34:59;;;;;;;7.60;6.82;;;30.70;58.40;;;;;;5064752;28;20047;-74
2023/06/11 11:37:28;;;;;;;8.35;6.70;;;30.80;58.50;;;;;;5094361;28;20087;-72
2023/06/11 11:39:54;;;;;;;9.43;6.80;;;30.80;58.70;;;;;;5087611;28;20043;-74
2023/06/11 11:42:22;;;;;;;7.40;6.60;;;30.90;58.40;;;;;;5092530;28;20035;-73
2023/06/11 11:44:50;;;;;;;9.73;6.65;;;30.90;58.90;;;;;;5092863;28;20039;-74
2023/06/11 11:47:20;;;;;;;8.80;6.80;;;31.00;58.30;;;;;;5094896;28;20061;-74
2023/06/11 11:49:55;;;;;;;9.15;6.35;;;31.00;57.80;;;;;;5093338;28;20200;-71
2023/06/11 11:52:23;;;;;;;8.25;6.93;;;31.10;57.80;;;;;;5087677;28;20189;-74
2023/06/11 11:54:50;;;;;;;8.88;6.95;;;31.20;56.70;;;;;;5073762;28;20589;-75
2023/06/11 11:57:20;;;;;;;8.07;6.68;;;31.20;55.80;;;;;;5071370;28;20039;-74
2023/06/11 11:59:46;;;;;;;7.28;6.57;;;31.30;55.90;;;;;;5076868;28;20078;-73
2023/06/11 12:02:12;;;;;;;8.33;6.73;;;31.40;56.90;;;;;;5090601;28;20741;-73
2023/06/11 12:04:40;;;;;;;10.32;6.63;;;31.40;57.20;;;;;;5075823;28;20038;-75
2023/06/11 12:07:07;;;;;;;11.18;6.50;;;31.40;55.70;;;;;;5086955;28;20490;-75
2023/06/11 12:09:34;;;;;;;9.27;6.82;;;31.40;55.10;;;;;;5069674;28;20120;-74
2023/06/11 12:12:00;;;;;;;10.00;6.72;;;31.50;54.80;;;;;;5071950;28;20036;-75
2023/06/11 12:14:26;;;;;;;9.40;6.70;;;31.60;54.20;;;;;;5091715;28;20067;-74
2023/06/11 12:16:54;;;;;;;9.27;6.93;;;31.60;53.90;;;;;;5077958;28;20052;-75
2023/06/11 12:19:20;;;;;;;8.73;6.38;;;31.50;53.80;;;;;;5096802;28;20040;-73
2023/06/11 12:21:46;;;;;;;7.53;6.40;;;31.50;53.50;;;;;;5093716;28;20067;-73
2023/06/11 12:24:15;;;;;;;8.32;6.60;;;31.40;54.30;;;;;;5091531;28;20565;-73
2023/06/11 12:26:46;;;;;;;8.75;6.60;;;31.30;54.70;;;;;;5067799;28;20114;-78
2023/06/11 12:29:12;;;;;;;8.13;7.03;;;31.10;54.30;;;;;;5087765;28;20111;-73
2023/06/11 12:31:38;;;;;;;8.60;6.50;;;31.00;54.00;;;;;;5074841;28;20073;-74
2023/06/11 12:34:05;;;;;;;6.80;6.10;;;31.10;55.10;;;;;;5094424;28;20048;-71
2023/06/11 12:36:32;;;;;;;8.38;6.55;;;31.20;55.00;;;;;;5100939;28;20082;-72
2023/06/11 12:39:01;;;;;;;7.15;6.45;;;31.40;55.30;;;;;;5095354;28;20044;-71